Terminal Aerodrome Forecast
Issued by NWS Cleveland, OH

Home | Current Version | Previous Version | Text Only | Print | Product List | Glossary On
Versions: 1 2 3 4 5 6 7 8 9 10 11 12 13
000
FTUS41 KCLE 261720
TAFMFD
TAF
KMFD 261720Z 2618/2718 22004KT P6SM FEW050
     FM262000 22004KT P6SM FEW250
     FM271600 30006KT P6SM BKN070=

USA.gov is the U.S. government's official web portal to all federal, state and local government web resources and services.